createdAt,value
2019-05-13T00:18:30.554Z,80.30
2019-05-13T00:48:33.603Z,85.70
2019-05-13T01:18:36.253Z,85.00
2019-05-13T01:48:38.893Z,84.40
2019-05-13T02:18:41.493Z,88.30
2019-05-13T02:48:44.107Z,85.00
2019-05-13T03:18:46.727Z,81.20
2019-05-13T03:48:52.680Z,80.00
2019-05-13T04:18:54.090Z,84.70
2019-05-13T04:48:56.787Z,81.30
2019-05-13T05:19:23.758Z,77.00
2019-05-13T05:49:24.868Z,76.10
2019-05-13T06:19:27.505Z,75.50
2019-05-13T06:49:32.252Z,70.00
2019-05-13T07:19:34.353Z,62.90
2019-05-13T07:49:37.108Z,62.60
2019-05-13T08:19:41.410Z,63.50
2019-05-13T08:49:44.015Z,61.10
2019-05-13T09:19:46.630Z,56.60
2019-05-13T09:49:54.402Z,56.60
2019-05-13T10:19:56.416Z,56.10
2019-05-13T10:50:02.536Z,53.10
2019-05-13T11:20:06.713Z,43.00
2019-05-13T11:50:11.631Z,43.60
2019-05-13T12:20:13.565Z,44.60
2019-05-13T12:50:17.913Z,42.40
2019-05-13T13:20:24.361Z,42.90
2019-05-13T13:50:25.012Z,41.40
2019-05-13T14:20:27.662Z,43.40
2019-05-13T14:50:31.939Z,38.60
2019-05-13T15:20:34.682Z,36.90
2019-05-13T15:50:37.444Z,33.50
2019-05-13T16:20:42.858Z,33.20
2019-05-13T16:50:44.609Z,35.80
2019-05-13T17:20:47.252Z,38.60
2019-05-13T17:50:51.969Z,44.90
2019-05-13T18:20:54.189Z,45.30
2019-05-13T18:50:56.821Z,46.10
2019-05-13T19:21:01.714Z,47.30
2019-05-13T19:51:05.912Z,49.60
2019-05-13T20:21:10.480Z,52.60
2019-05-13T20:51:12.924Z,55.60
2019-05-13T21:21:15.534Z,57.80
2019-05-13T21:51:18.241Z,61.10
2019-05-13T22:21:20.930Z,61.70
2019-05-13T22:51:23.565Z,59.20
2019-05-13T23:21:26.183Z,59.00
2019-05-13T23:51:32.080Z,59.70
